KESC/ESC METAR and TAF weather

Enter ICAO airport designator
Station Type Date Time Source
KESC METAR 2020/08/05 14:56 UTC NOAA

KESC 051456Z AUTO 21004KT 10SM CLR 17/08 A3007 RMK AO2 SLP187 T01720078 58003


Station Type Date Time Source
KESC Decoded METAR 2020/08/05 14:56 UTC NOAA

Escanaba, MI, United States (KESC) 45-45N 087-02W 187M
Aug 05, 2020 - 10:56 AM EDT / 2020.08.05 1456 UTC
Wind: from the SSW (210 degrees) at 5 MPH (4 KT):0
Visibility: 10 mile(s):0
Sky conditions: clear
Temperature: 63.0 F (17.2 C)
Dew Point: 46.0 F (7.8 C)
Relative Humidity: 53%
Pressure (altimeter): 30.07 in. Hg (1018 hPa)
Pressure tendency: 0.01 inches (0.3 hPa) lower than three hours ago
ob: KESC 051456Z AUTO 21004KT 10SM CLR 17/08 A3007 RMK AO2 SLP187 T01720078 58003
cycle: 15

Station Type Date Time Source
KESC TAF UTC NOAA

Error!

Example: see airport list